• Join FlightAware (Why Join?)
  • Login
  • US Flag 
01:25PM EDT


 

Airport Tracker/Info


-or-


 

Live Flight TrackerFlight Track Log ✈ SWA817 ✈ 23-Apr-2013 ✈ KPHX - KONT

Flight Track Log - Related Links

Times and Time Zones

All times are in EDT time to prevent confusion due to time zone crossing. See the SWA817 flight status page for this flight to view local times or setup timezone preferences in your user account.

Time Position Orientation Groundspeed Altitude Reporting Facility
EDT Latitude Longitude Course Direction KTS MPH feet Rate Location/Type
04:15PM 33.4333 -112.0333 252° West 177 204 2,100  Level Phoenix TRACON
04:16PM 33.4272 -112.0553 252° West 182 209 2,600 1,620 Climbing Albuquerque Center
04:17PM 33.4047 -112.1261 249° West 227 261 4,400 2,460 Climbing Albuquerque Center
04:18PM 33.3800 -112.2106 251° West 265 305 7,700 2,820 Climbing Albuquerque Center
04:19PM 33.3828 -112.2992 272° West 276 318 10,300 1,740 Climbing Albuquerque Center
04:20PM 33.3942 -112.4008 278° West 312 359 11,400 2,220 Climbing Albuquerque Center
04:21PM 33.4156 -112.5369 281° West 344 396 14,900 2,760 Climbing Albuquerque Center
04:22PM 33.4317 -112.6547 279° West 348 400 17,200 2,160 Climbing Albuquerque Center
04:23PM 33.4458 -112.7717 278° West 353 406 19,400 1,980 Climbing Albuquerque Center
04:24PM 33.4653 -112.8911 281° West 363 418 21,400 1,740 Climbing Albuquerque Center
04:26PM 33.4776 -113.0043 279° West  Level FlightAware Approximate
04:27PM 33.5275 -113.2083 279° West 377 434 25,600  Level Los Angeles Center
04:27PM 33.5414 -113.2847 282° West 381 438 26,300 1,380 Climbing Albuquerque Center
04:28PM 33.5656 -113.4133 283° West 388 447 27,900 1,500 Climbing Albuquerque Center
04:29PM 33.5892 -113.5406 283° West 391 450 29,400 960 Climbing Albuquerque Center
04:30PM 33.6133 -113.6631 283° West 386 444 30,000 300 Climbing Albuquerque Center
04:31PM 33.6361 -113.7922 282° West 389 448 30,100  Climbing Albuquerque Center
04:32PM 33.6506 -113.9208 278° West 391 450 30,100  Level Albuquerque Center
04:33PM 33.6625 -114.0511 276° West 393 452 30,100  Level Albuquerque Center
04:34PM 33.6778 -114.2061 277° West 391 450 30,100 -60 Level Albuquerque Center
04:35PM 33.6903 -114.3347 277° West 395 455 30,000 -60 Descending Albuquerque Center
04:36PM 33.6994 -114.4244 277° West 393 452 30,000  Level Los Angeles Center
04:37PM 33.7119 -114.5556 277° West 396 456 30,000  Level Los Angeles Center
04:38PM 33.7233 -114.6861 276° West 396 456 30,000  Level Los Angeles Center
04:39PM 33.7372 -114.8436 276° West 396 456 30,000  Level Los Angeles Center
04:40PM 33.7500 -114.9756 277° West 398 458 30,000 -180 Level Los Angeles Center
04:41PM 33.7617 -115.1075 276° West 400 460 29,700 -660 Descending Los Angeles Center
04:42PM 33.7739 -115.2378 276° West 396 456 28,700 -1,020 Descending Los Angeles Center
04:43PM 33.7839 -115.3672 275° West 392 451 27,600 -1,020 Descending Los Angeles Center
04:44PM 33.7933 -115.4936 275° West 384 442 26,600 -1,080 Descending Los Angeles Center
04:45PM 33.8064 -115.6433 276° West 377 434 25,400 -1,080 Descending Los Angeles Center
04:46PM 33.8172 -115.7656 276° West 370 426 24,400 -720 Descending Los Angeles Center
04:47PM 33.8278 -115.8864 276° West 366 421 24,000 -240 Descending Los Angeles Center
04:49PM 33.8369 -116.0097 275° West 370 426 24,000  Level Los Angeles Center
04:50PM 33.8469 -116.1325 276° West 372 428 24,000 -780 Level Los Angeles Center
04:51PM 33.8589 -116.2772 276° West 365 420 22,400 -2,040 Descending Los Angeles Center
04:52PM 33.8683 -116.4022 275° West 373 429 19,900 -2,700 Descending Los Angeles Center
04:53PM 33.8753 -116.5228 274° West 366 421 16,900 -2,400 Descending Los Angeles Center
04:54PM 33.8797 -116.6461 273° West 370 426 15,000 -1,260 Descending Los Angeles Center
04:55PM 33.8864 -116.7700 274° West 371 427 14,300 -540 Descending Los Angeles Center
04:56PM 33.8903 -116.8797 272° West 331 381 14,000 -180 Descending Los Angeles Center
04:57PM 33.8944 -116.9883 273° West 274 315 14,000 -840 Level Los Angeles Center
04:58PM 33.8992 -117.0708 274° West 253 291 12,300 -2,340 Descending Los Angeles Center
04:59PM 33.9333 -117.1667 293° West 299 344 9,200 -2,640 Descending Southern California TRACON
05:00PM 33.9833 -117.2500 306° West 285 328 6,900 -1,740 Descending Southern California TRACON
05:01PM 34.0333 -117.3167 312° West 255 293 5,800 -1,260 Descending Southern California TRACON
05:02PM 34.0500 -117.3833 287° West 234 269 4,400 -1,500 Descending Southern California TRACON
05:03PM 34.0500 -117.4667 270° West 221 254 2,900 -1,260 Descending Southern California TRACON
05:04PM 34.0500 -117.5167 270° West 166 191 1,900 -900 Descending Southern California TRACON
05:05PM 34.0500 -117.5667 270° West 144 166 1,300 -720 Descending Southern California TRACON
05:07PM 34.0500 -117.6000 287° West  Level FlightAware Approximate